^^
Station Historical Data
Daily Summary for July 26, 2021 Units:  English    Metric   Both
Daily Weekly Monthly Yearly
  High: Low: Average:
Temperature: 86.3 °F 71.2 °F 75.5 °F
Dew Point: 73.7 °F 63.2 °F 67 °F
Humidity: 85% 51% 75%
Wind Speed: 4mph 0mph 2mph
Wind Gust: 7mph - -
Wind- - SW
Pressure: 29.91 in 29.86 in -
Precipitation: 0.00 in    
 
 
Tabular Data for July 26, 2021
Time Temperature Dew Point Pressure Wind Wind Speed Wind Gust Humidity Rainfall Rate (Hourly) solar
00:00 74 °F 66.3 °F 29.86 in NE 1 mph 1 mph 77% 0.00 in 0 W/m2
00:05 73.9 °F 66.2 °F 29.86 in East 1 mph 1 mph 77% 0.00 in 0 W/m2
00:10 73.8 °F 66.1 °F 29.86 in Calm     77% 0.00 in 0 W/m2
00:15 73.7 °F 66 °F 29.86 in Calm     77% 0.00 in 0 W/m2
00:20 73.6 °F 65.6 °F 29.86 in Calm   1 mph 76% 0.00 in 0 W/m2
00:25 73.5 °F 65.5 °F 29.86 in Calm   1 mph 76% 0.00 in 0 W/m2
00:30 73.4 °F 65.4 °F 29.86 in Calm   1 mph 76% 0.00 in 0 W/m2
00:35 73.4 °F 65.4 °F 29.86 in NE 1 mph 1 mph 76% 0.00 in 0 W/m2
00:40 73.2 °F 65.2 °F 29.86 in NE 1 mph 1 mph 76% 0.00 in 0 W/m2
00:45 73.2 °F 65.2 °F 29.86 in Calm   1 mph 76% 0.00 in 0 W/m2
00:50 73.1 °F 65.1 °F 29.86 in Calm     76% 0.00 in 0 W/m2
00:55 73.1 °F 65.1 °F 29.86 in Calm     76% 0.00 in 0 W/m2
01:00 73 °F 65 °F 29.86 in Calm     76% 0.00 in 0 W/m2
01:05 72.9 °F 64.9 °F 29.86 in Calm     76% 0.00 in 0 W/m2
01:10 72.8 °F 64.8 °F 29.86 in Calm     76% 0.00 in 0 W/m2
01:15 72.7 °F 64.7 °F 29.86 in Calm     76% 0.00 in 0 W/m2
01:20 72.6 °F 64.6 °F 29.87 in Calm     76% 0.00 in 0 W/m2
01:25 72.6 °F 64.6 °F 29.87 in Calm     76% 0.00 in 0 W/m2
01:30 72.4 °F 64.4 °F 29.87 in Calm   1 mph 76% 0.00 in 0 W/m2
01:35 72.3 °F 63.9 °F 29.87 in Calm   1 mph 75% 0.00 in 0 W/m2
01:40 72.2 °F 63.8 °F 29.87 in Calm   1 mph 75% 0.00 in 0 W/m2
01:45 72.1 °F 64.1 °F 29.87 in Calm   1 mph 76% 0.00 in 0 W/m2
01:50 72 °F 64.4 °F 29.87 in Calm     77% 0.00 in 0 W/m2
01:55 72 °F 64.4 °F 29.87 in Calm     77% 0.00 in 0 W/m2
02:00 72 °F 64.8 °F 29.87 in Calm     78% 0.00 in 0 W/m2
02:05 72 °F 65.1 °F 29.87 in Calm     79% 0.00 in 0 W/m2
02:10 72 °F 65.1 °F 29.87 in Calm     79% 0.00 in 0 W/m2
02:15 72 °F 65.1 °F 29.87 in Calm     79% 0.00 in 0 W/m2
02:20 72 °F 65.1 °F 29.87 in Calm     79% 0.00 in 0 W/m2
02:25 71.9 °F 65 °F 29.87 in WNW 1 mph 1 mph 79% 0.00 in 0 W/m2
02:30 71.8 °F 64.6 °F 29.87 in NW 1 mph 1 mph 78% 0.00 in 0 W/m2
02:35 71.7 °F 64.1 °F 29.87 in NW 1 mph 1 mph 77% 0.00 in 0 W/m2
02:40 71.7 °F 63.7 °F 29.87 in West 1 mph 1 mph 76% 0.00 in 0 W/m2
02:45 71.6 °F 63.6 °F 29.87 in NE 1 mph 1 mph 76% 0.00 in 0 W/m2
02:50 71.5 °F 63.9 °F 29.87 in Calm     77% 0.00 in 0 W/m2
02:55 71.5 °F 63.9 °F 29.87 in Calm     77% 0.00 in 0 W/m2
03:00 71.4 °F 63.4 °F 29.87 in Calm     76% 0.00 in 0 W/m2
03:05 71.4 °F 63.4 °F 29.86 in Calm     76% 0.00 in 0 W/m2
03:10 71.3 °F 63.3 °F 29.86 in Calm     76% 0.00 in 0 W/m2
03:15 71.2 °F 63.2 °F 29.86 in Calm     76% 0.00 in 0 W/m2
03:20 71.2 °F 63.2 °F 29.87 in Calm     76% 0.00 in 0 W/m2
03:25 71.2 °F 63.6 °F 29.87 in Calm   2 mph 77% 0.00 in 0 W/m2
03:30 71.2 °F 64.4 °F 29.87 in SSW 1 mph 1 mph 79% 0.00 in 0 W/m2
03:35 71.3 °F 65.2 °F 29.86 in West 1 mph 1 mph 81% 0.00 in 0 W/m2
03:40 71.7 °F 66.6 °F 29.86 in SW 1 mph 1 mph 84% 0.00 in 0 W/m2
03:45 71.9 °F 66.5 °F 29.86 in Calm   1 mph 83% 0.00 in 0 W/m2
03:50 71.8 °F 66 °F 29.86 in North 1 mph 1 mph 82% 0.00 in 0 W/m2
03:55 71.8 °F 66 °F 29.86 in SW 1 mph 1 mph 82% 0.00 in 0 W/m2
04:00 72.3 °F 67.5 °F 29.86 in SW 1 mph 1 mph 85% 0.00 in 0 W/m2
04:05 73 °F 67.9 °F 29.86 in SSW 1 mph 1 mph 84% 0.00 in 0 W/m2
04:10 73.4 °F 68.3 °F 29.86 in SSW 1 mph 1 mph 84% 0.00 in 0 W/m2
04:15 73.6 °F 68.1 °F 29.87 in SW 1 mph 1 mph 83% 0.00 in 0 W/m2
04:20 73.8 °F 68.3 °F 29.87 in SW 1 mph 1 mph 83% 0.00 in 0 W/m2
04:25 73.8 °F 68.3 °F 29.87 in WSW 1 mph 1 mph 83% 0.00 in 0 W/m2
04:30 73.6 °F 67.4 °F 29.87 in WSW 1 mph 1 mph 81% 0.00 in 0 W/m2
04:35 73.4 °F 66.5 °F 29.87 in SW 2 mph 3 mph 79% 0.00 in 0 W/m2
04:40 73.4 °F 66.1 °F 29.87 in WSW 2 mph 3 mph 78% 0.00 in 0 W/m2
04:45 73.3 °F 65.7 °F 29.87 in West 2 mph 3 mph 77% 0.00 in 0 W/m2
04:50 73.3 °F 66 °F 29.87 in SW 2 mph 4 mph 78% 0.00 in 0 W/m2
04:55 73.3 °F 65.7 °F 29.87 in West 2 mph 4 mph 77% 0.00 in 0 W/m2
05:00 73.4 °F 66.1 °F 29.87 in SW 2 mph 3 mph 78% 0.00 in 0 W/m2
05:05 73.5 °F 66.6 °F 29.87 in WSW 2 mph 3 mph 79% 0.00 in 0 W/m2
05:10 73.5 °F 66.6 °F 29.87 in WSW 2 mph 3 mph 79% 0.00 in 0 W/m2
05:15 73.5 °F 66.6 °F 29.87 in NE 2 mph 3 mph 79% 0.00 in 0 W/m2
05:20 73.6 °F 66.7 °F 29.88 in SSW 1 mph 2 mph 79% 0.00 in 0 W/m2
05:25 73.6 °F 67 °F 29.88 in ESE 1 mph 2 mph 80% 0.00 in 0 W/m2
05:30 73.5 °F 66.9 °F 29.87 in SSW 1 mph 2 mph 80% 0.00 in 0 W/m2
05:35 73.4 °F 66.5 °F 29.88 in WSW 1 mph 5 mph 79% 0.00 in 0 W/m2
05:40 73.3 °F 66 °F 29.88 in South 2 mph 2 mph 78% 0.00 in 0 W/m2
05:45 73.3 °F 66.4 °F 29.88 in WSW 2 mph 2 mph 79% 0.00 in 0 W/m2
05:50 73.3 °F 66 °F 29.88 in East 2 mph 2 mph 78% 0.00 in 0 W/m2
05:55 73.3 °F 65.7 °F 29.88 in West 2 mph 2 mph 77% 0.00 in 0 W/m2
06:00 73.3 °F 65.7 °F 29.88 in West 2 mph 2 mph 77% 0.00 in 0 W/m2
06:05 73.1 °F 65.1 °F 29.88 in West 2 mph 2 mph 76% 0.00 in 0 W/m2
06:10 73 °F 64.6 °F 29.88 in WSW 2 mph 3 mph 75% 0.00 in 0 W/m2
06:15 73 °F 64.6 °F 29.88 in SW 2 mph 3 mph 75% 0.00 in 5 W/m2
06:20 73 °F 64.6 °F 29.88 in West 2 mph 2 mph 75% 0.00 in 7 W/m2
06:25 72.8 °F 64.4 °F 29.88 in NW 2 mph 3 mph 75% 0.00 in 9 W/m2
06:30 72.9 °F 65.6 °F 29.88 in NW 2 mph 2 mph 78% 0.00 in 11 W/m2
06:35 72.8 °F 65.2 °F 29.88 in West 2 mph 2 mph 77% 0.00 in 14 W/m2
06:40 72.7 °F 64.7 °F 29.88 in ESE 2 mph 2 mph 76% 0.00 in 16 W/m2
06:45 72.7 °F 65.1 °F 29.88 in WNW 2 mph 2 mph 77% 0.00 in 18 W/m2
06:50 72.7 °F 65.4 °F 29.88 in SSW 2 mph 3 mph 78% 0.00 in 23 W/m2
06:55 72.7 °F 65.1 °F 29.88 in WSW 2 mph 3 mph 77% 0.00 in 25 W/m2
07:00 72.6 °F 65 °F 29.88 in West 2 mph 2 mph 77% 0.00 in 26 W/m2
07:05 72.6 °F 65 °F 29.88 in SW 2 mph 3 mph 77% 0.00 in 30 W/m2
07:10 72.6 °F 65 °F 29.88 in SSE 2 mph 2 mph 77% 0.00 in 40 W/m2
07:15 72.5 °F 64.9 °F 29.88 in SW 2 mph 2 mph 77% 0.00 in 46 W/m2
07:20 72.5 °F 64.9 °F 29.89 in SSW 2 mph 3 mph 77% 0.00 in 40 W/m2
07:25 72.5 °F 64.5 °F 29.89 in WSW 2 mph 3 mph 76% 0.00 in 37 W/m2
07:35 72.4 °F 64 °F 29.89 in NW 2 mph 6 mph 75% 0.00 in 39 W/m2
07:40 72.4 °F 63.6 °F 29.89 in SSW 2 mph 2 mph 74% 0.00 in 40 W/m2
07:45 72.4 °F 63.6 °F 29.89 in NW 2 mph 2 mph 74% 0.00 in 42 W/m2
07:50 72.4 °F 64 °F 29.89 in East 2 mph 2 mph 75% 0.00 in 44 W/m2
07:55 72.4 °F 64 °F 29.90 in SW 2 mph 2 mph 75% 0.00 in 46 W/m2
08:00 72.5 °F 64.1 °F 29.89 in South 2 mph 2 mph 75% 0.00 in 49 W/m2
08:05 72.5 °F 64.1 °F 29.90 in SSW 2 mph 5 mph 75% 0.00 in 49 W/m2
08:10 72.6 °F 64.6 °F 29.90 in West 2 mph 3 mph 76% 0.00 in 51 W/m2
08:15 72.7 °F 64.7 °F 29.90 in WSW 2 mph 3 mph 76% 0.00 in 100 W/m2
08:20 72.6 °F 63.8 °F 29.90 in WSW 2 mph 2 mph 74% 0.00 in 251 W/m2
08:25 72.7 °F 64.7 °F 29.90 in West 2 mph 6 mph 76% 0.00 in 267 W/m2
08:30 72.8 °F 64.4 °F 29.90 in WNW 2 mph 2 mph 75% 0.00 in 283 W/m2
08:35 72.8 °F 64.8 °F 29.90 in SW 3 mph 4 mph 76% 0.00 in 299 W/m2
08:40 72.9 °F 64.5 °F 29.90 in West 3 mph 3 mph 75% 0.00 in 313 W/m2
08:45 73 °F 64.6 °F 29.90 in SSW 2 mph 3 mph 75% 0.00 in 327 W/m2
08:50 73 °F 64.6 °F 29.90 in SW 2 mph 3 mph 75% 0.00 in 339 W/m2
08:55 73 °F 65 °F 29.90 in WSW 2 mph 5 mph 76% 0.00 in 355 W/m2
09:00 73.1 °F 65.1 °F 29.90 in NNW 3 mph 3 mph 76% 0.00 in 369 W/m2
09:05 73.1 °F 64.7 °F 29.91 in SSW 3 mph 4 mph 75% 0.00 in 383 W/m2
09:10 73.1 °F 64.7 °F 29.90 in WNW 3 mph 3 mph 75% 0.00 in 397 W/m2
09:15 73.2 °F 64.8 °F 29.90 in SW 2 mph 3 mph 75% 0.00 in 411 W/m2
09:20 73.3 °F 65.3 °F 29.91 in NW 2 mph 2 mph 76% 0.00 in 424 W/m2
09:25 73.4 °F 65 °F 29.91 in WSW 2 mph 3 mph 75% 0.00 in 438 W/m2
09:30 73.4 °F 65.4 °F 29.91 in SSW 2 mph 3 mph 76% 0.00 in 446 W/m2
09:35 73.4 °F 65.4 °F 29.91 in WSW 3 mph 3 mph 76% 0.00 in 461 W/m2
09:40 73.5 °F 65.8 °F 29.91 in South 2 mph 2 mph 77% 0.00 in 475 W/m2
09:45 73.4 °F 65.4 °F 29.91 in SSW 2 mph 2 mph 76% 0.00 in 487 W/m2
09:50 73.4 °F 65.4 °F 29.90 in WSW 2 mph 4 mph 76% 0.00 in 499 W/m2
09:55 73.4 °F 65.7 °F 29.90 in South 2 mph 4 mph 77% 0.00 in 515 W/m2
10:00 73.5 °F 66.2 °F 29.91 in West 2 mph 2 mph 78% 0.00 in 526 W/m2
10:05 73.5 °F 66.2 °F 29.91 in West 2 mph 4 mph 78% 0.00 in 540 W/m2
10:10 73.6 °F 66.7 °F 29.91 in SSW 2 mph 2 mph 79% 0.00 in 550 W/m2
10:15 73.6 °F 66.3 °F 29.91 in SSW 2 mph 2 mph 78% 0.00 in 563 W/m2
10:20 73.6 °F 65.9 °F 29.91 in WNW 3 mph 3 mph 77% 0.00 in 575 W/m2
10:25 73.7 °F 66 °F 29.91 in SSW 3 mph 3 mph 77% 0.00 in 587 W/m2
10:30 73.8 °F 66.1 °F 29.91 in SE 3 mph 3 mph 77% 0.00 in 596 W/m2
10:35 73.9 °F 66.2 °F 29.91 in SW 3 mph 7 mph 77% 0.00 in 612 W/m2
10:40 74 °F 66.3 °F 29.91 in WSW 3 mph 3 mph 77% 0.00 in 624 W/m2
10:45 74.1 °F 66.8 °F 29.91 in SW 3 mph 3 mph 78% 0.00 in 633 W/m2
10:50 74.2 °F 66.9 °F 29.91 in SW 3 mph 6 mph 78% 0.00 in 643 W/m2
10:55 74.3 °F 67 °F 29.91 in WSW 3 mph 7 mph 78% 0.00 in 652 W/m2
11:00 74.4 °F 67.1 °F 29.91 in WSW 3 mph 3 mph 78% 0.00 in 659 W/m2
11:05 74.7 °F 67.4 °F 29.91 in South 3 mph 5 mph 78% 0.00 in 671 W/m2
11:10 74.8 °F 67.1 °F 29.91 in SW 3 mph 3 mph 77% 0.00 in 680 W/m2
11:15 74.9 °F 67.2 °F 29.91 in SSW 3 mph 3 mph 77% 0.00 in 693 W/m2
11:20 75 °F 67.7 °F 29.91 in South 3 mph 4 mph 78% 0.00 in 700 W/m2
11:25 75.2 °F 67.9 °F 29.91 in South 3 mph 4 mph 78% 0.00 in 710 W/m2
11:30 75.3 °F 68 °F 29.91 in South 3 mph 3 mph 78% 0.00 in 714 W/m2
11:35 75.4 °F 67.7 °F 29.91 in SSW 2 mph 3 mph 77% 0.00 in 722 W/m2
11:40 75.5 °F 67.8 °F 29.91 in SSW 2 mph 4 mph 77% 0.00 in 729 W/m2
11:45 75.7 °F 67.6 °F 29.90 in SSW 3 mph 4 mph 76% 0.00 in 735 W/m2
11:50 76 °F 67.9 °F 29.90 in SW 3 mph 4 mph 76% 0.00 in 740 W/m2
11:55 76.2 °F 68.8 °F 29.91 in SW 3 mph 4 mph 78% 0.00 in 747 W/m2
12:00 76.3 °F 68.2 °F 29.90 in NE 3 mph 3 mph 76% 0.00 in 747 W/m2
12:05 76.5 °F 68.4 °F 29.91 in SSW 3 mph 3 mph 76% 0.00 in 758 W/m2
12:10 76.7 °F 68.6 °F 29.91 in South 3 mph 3 mph 76% 0.00 in 758 W/m2
12:15 76.9 °F 68.8 °F 29.91 in WSW 3 mph 3 mph 76% 0.00 in 768 W/m2
12:20 77.1 °F 68.9 °F 29.91 in SSW 3 mph 3 mph 76% 0.00 in 775 W/m2
12:25 77.3 °F 69.1 °F 29.90 in West 3 mph 3 mph 76% 0.00 in 779 W/m2
12:30 77.5 °F 68.9 °F 29.90 in SSW 3 mph 4 mph 75% 0.00 in 784 W/m2
12:35 77.7 °F 69.9 °F 29.90 in WNW 3 mph 4 mph 77% 0.00 in 791 W/m2
12:40 77.8 °F 69.2 °F 29.90 in WSW 3 mph 4 mph 75% 0.00 in 796 W/m2
12:45 78.1 °F 69.9 °F 29.90 in SSW 3 mph 4 mph 76% 0.00 in 798 W/m2
12:50 78.3 °F 69.3 °F 29.90 in WNW 3 mph 3 mph 74% 0.00 in 805 W/m2
12:55 79 °F 70 °F 29.90 in NW 3 mph 3 mph 74% 0.00 in 807 W/m2
13:00 79.1 °F 70.1 °F 29.90 in SSW 3 mph 5 mph 74% 0.00 in 810 W/m2
13:05 79.3 °F 70.3 °F 29.90 in SSW 3 mph 5 mph 74% 0.00 in 814 W/m2
13:10 79.4 °F 70.4 °F 29.90 in South 3 mph 3 mph 74% 0.00 in 821 W/m2
13:15 79.4 °F 70 °F 29.90 in SW 3 mph 3 mph 73% 0.00 in 824 W/m2
13:20 79.6 °F 70.6 °F 29.90 in SSW 3 mph 5 mph 74% 0.00 in 828 W/m2
13:25 80 °F 70.2 °F 29.90 in WNW 3 mph 5 mph 72% 0.00 in 831 W/m2
13:30 80.1 °F 69.8 °F 29.90 in SSW 3 mph 5 mph 71% 0.00 in 830 W/m2
13:35 80.3 °F 69.6 °F 29.90 in NW 3 mph 5 mph 70% 0.00 in 835 W/m2
13:40 80.5 °F 69.8 °F 29.90 in SW 3 mph 3 mph 70% 0.00 in 835 W/m2
13:45 80.8 °F 69.7 °F 29.90 in SW 3 mph 3 mph 69% 0.00 in 835 W/m2
13:50 81 °F 69.9 °F 29.90 in SW 3 mph 4 mph 69% 0.00 in 838 W/m2
13:55 81.2 °F 70.5 °F 29.90 in SE 3 mph 4 mph 70% 0.00 in 833 W/m2
14:00 81.4 °F 70.2 °F 29.90 in SSW 3 mph 3 mph 69% 0.00 in 833 W/m2
14:05 81.5 °F 70.3 °F 29.90 in NW 3 mph 3 mph 69% 0.00 in 837 W/m2
14:10 81.6 °F 70.4 °F 29.90 in NE 3 mph 3 mph 69% 0.00 in 833 W/m2
14:15 81.6 °F 70 °F 29.90 in SW 3 mph 4 mph 68% 0.00 in 828 W/m2
14:20 81.8 °F 70.2 °F 29.90 in NW 3 mph 3 mph 68% 0.00 in 823 W/m2
14:25 82 °F 71.7 °F 29.90 in WNW 3 mph 3 mph 71% 0.00 in 823 W/m2
14:30 81.8 °F 71.1 °F 29.91 in SSW 3 mph 4 mph 70% 0.00 in 819 W/m2
14:35 81.9 °F 70.3 °F 29.90 in SW 3 mph 4 mph 68% 0.00 in 819 W/m2
14:40 82 °F 72.1 °F 29.90 in SW 4 mph 4 mph 72% 0.00 in 816 W/m2
14:45 82.4 °F 71.6 °F 29.90 in West 4 mph 4 mph 70% 0.00 in 809 W/m2
14:50 82.1 °F 70.5 °F 29.90 in SSW 4 mph 4 mph 68% 0.00 in 800 W/m2
14:55 82.1 °F 71.3 °F 29.90 in SSW 3 mph 4 mph 70% 0.00 in 796 W/m2
15:00 82.1 °F 70.9 °F 29.90 in SW 3 mph 3 mph 69% 0.00 in 791 W/m2
15:05 82.1 °F 71.8 °F 29.90 in SSW 3 mph 3 mph 71% 0.00 in 784 W/m2
15:10 82 °F 70.8 °F 29.90 in SW 3 mph 3 mph 69% 0.00 in 780 W/m2
15:15 82 °F 71.2 °F 29.91 in SSE 3 mph 3 mph 70% 0.00 in 773 W/m2
15:20 82.1 °F 72.2 °F 29.91 in SW 3 mph 3 mph 72% 0.00 in 758 W/m2
15:25 82.1 °F 71.3 °F 29.91 in SSW 3 mph 3 mph 70% 0.00 in 752 W/m2
15:30 82.3 °F 72.4 °F 29.91 in WSW 3 mph 4 mph 72% 0.00 in 747 W/m2
15:35 81.9 °F 72 °F 29.90 in SW 3 mph 4 mph 72% 0.00 in 742 W/m2
15:40 82.1 °F 72.2 °F 29.90 in SE 3 mph 3 mph 72% 0.00 in 733 W/m2
15:45 82 °F 71.7 °F 29.90 in South 3 mph 3 mph 71% 0.00 in 722 W/m2
15:50 82.1 °F 72.6 °F 29.90 in SSW 3 mph 5 mph 73% 0.00 in 721 W/m2
15:55 82.2 °F 72.3 °F 29.90 in WSW 4 mph 5 mph 72% 0.00 in 705 W/m2
16:00 82.1 °F 72.6 °F 29.90 in SW 3 mph 3 mph 73% 0.00 in 700 W/m2
16:05 81.9 °F 72.8 °F 29.90 in North 4 mph 4 mph 74% 0.00 in 682 W/m2
16:10 82 °F 73.7 °F 29.90 in South 3 mph 3 mph 76% 0.00 in 675 W/m2
16:15 82.2 °F 72.3 °F 29.90 in SSW 2 mph 3 mph 72% 0.00 in 666 W/m2
16:20 82.5 °F 71.7 °F 29.90 in South 2 mph 2 mph 70% 0.00 in 656 W/m2
16:25 82.7 °F 73.2 °F 29.90 in West 2 mph 2 mph 73% 0.00 in 647 W/m2
16:30 82.5 °F 72.6 °F 29.90 in SSE 2 mph 3 mph 72% 0.00 in 635 W/m2
16:35 82.6 °F 73.1 °F 29.90 in NE 2 mph 3 mph 73% 0.00 in 626 W/m2
16:40 82.8 °F 72.4 °F 29.90 in SW 2 mph 3 mph 71% 0.00 in 612 W/m2
16:45 83.7 °F 66.3 °F 29.90 in NNW 2 mph 3 mph 56% 0.00 in 603 W/m2
16:50 85.6 °F 66 °F 29.90 in NW 3 mph 4 mph 52% 0.00 in 587 W/m2
16:55 86.3 °F 66 °F 29.90 in WNW 3 mph 4 mph 51% 0.00 in 580 W/m2
17:00 85.4 °F 69.4 °F 29.90 in NW 3 mph 3 mph 59% 0.00 in 570 W/m2
17:05 85.2 °F 70.2 °F 29.90 in WNW 2 mph 3 mph 61% 0.00 in 570 W/m2
17:10 85.8 °F 65.6 °F 29.90 in NE 3 mph 3 mph 51% 0.00 in 552 W/m2
Sand Point, Michigan, USA
Compliments of Weather Underground - 2 mb